| Date | Time | Temp. (oF) | Dew Point (oF) | Rel. Hum. (%) | Press. (in.) | Wind Dir. (deg.) | Wind Speed (mph) | Hourly Rainfall (i n.) |
|
|---|---|---|---|---|---|---|---|---|---|
| 1 | 04/23 | 24:00 | 58 | 50 | 75 | 30.08 | 130 | 4 | 0.00 |
| 2 | 04/22 | 23:00 | 61 | 53 | 76 | 30.06 | 50 | 6 | 0.00 |
| 3 | 04/22 | 22:00 | 61 | 54 | 79 | 30.06 | 50 | 1 | 0.00 |
| 4 | 04/22 | 21:00 | 63 | 54 | 74 | 30.03 | 50 | 0 | 0.00 |
| 5 | 04/22 | 20:00 | 65 | 56 | 73 | 30.01 | 50 | 0 | 0.00 |
| 6 | 04/22 | 19:00 | 69 | 58 | 69 | 30.00 | 50 | 0 | 0.00 |
| 7 | 04/22 | 18:00 | 70 | 57 | 64 | 30.00 | 50 | 1 | 0.00 |
| 8 | 04/22 | 17:00 | 73 | 57 | 59 | 30.02 | 70 | 1 | 0.00 |
| 9 | 04/22 | 16:00 | 74 | 56 | 55 | 30.03 | 350 | 0 | 0.00 |
| 10 | 04/22 | 15:00 | 73 | 56 | 57 | 30.04 | 280 | 2 | 0.00 |
| 11 | 04/22 | 14:00 | 70 | 55 | 60 | 30.04 | 110 | 2 | 0.00 |
| 12 | 04/22 | 13:00 | 66 | 54 | 67 | 30.06 | 310 | 4 | 0.00 |
| 13 | 04/22 | 12:00 | 59 | 51 | 75 | 30.09 | 120 | 0 | 0.00 |
| 14 | 04/22 | 11:00 | 54 | 48 | 82 | 30.08 | 50 | 1 | 0.00 |
| 15 | 04/22 | 10:00 | 52 | 48 | 87 | 30.13 | 290 | 1 | 0.00 |
| 16 | 04/22 | 09:00 | 50 | 47 | 92 | 30.14 | 30 | 0 | 0.00 |
| 17 | 04/22 | 08:00 | 48 | 45 | 92 | 30.12 | 10 | 0 | 0.00 |
| 18 | 04/22 | 07:00 | 47 | 43 | 89 | 30.09 | 90 | 0 | 0.00 |
| 19 | 04/22 | 06:00 | 47 | 43 | 89 | 30.07 | 90 | 0 | 0.00 |
| 20 | 04/22 | 05:00 | 46 | 42 | 88 | 30.10 | 340 | 2 | 0.00 |
| 21 | 04/22 | 04:00 | 46 | 42 | 87 | 30.11 | 100 | 2 | 0.00 |
| 22 | 04/22 | 03:00 | 46 | 41 | 83 | 30.10 | 100 | 2 | 0.00 |
| 23 | 04/22 | 02:00 | 47 | 41 | 81 | 30.10 | 100 | 1 | 0.00 |
| 24 | 04/22 | 01:00 | 46 | 40 | 80 | 30.10 | 100 | 1 | 0.00 |